RYR2381 LIRZ-EPKK
Flight info
| Callsign | RYR2381 |
|---|---|
| Flight time | 1h 33m |
| Altitude | 33000 |
| Route | LAKOX Q25 VERUN DCT GAVRA DCT ARMIX DCT DOL DCT RADLY DCT LEDVA DCT NETIR |
| Aircraft | B38M/M-SADE3FGILRWY/SB1 |
Departure
| Time | 2026-04-26 13:24 |
|---|---|
| Airport | Perugia San Francesco d'Assisi – Umbria International Airport (LIRZ) |
Arrival
| Time | 2026-04-26 14:57 |
|---|---|
| Airport | Kraków John Paul II International Airport (EPKK) |
| Time | Latitude | Longitude | Altitude | Speed | Heading |
|---|---|---|---|---|---|
| 2026-04-26 12:58 | 43.09514 | 12.50384 | 672 ft | 0 kts | 249° |
| 2026-04-26 13:15 | 43.09514 | 12.50388 | 671 ft | 3 kts | 248° |
| 2026-04-26 13:16 | 43.09533 | 12.50426 | 667 ft | 4 kts | 213° |
| 2026-04-26 13:16 | 43.09557 | 12.50436 | 671 ft | 4 kts | 175° |
| 2026-04-26 13:16 | 43.09569 | 12.50433 | 669 ft | 0 kts | 161° |
| 2026-04-26 13:20 | 43.09568 | 12.50434 | 671 ft | 1 kts | 162° |
| 2026-04-26 13:20 | 43.09549 | 12.50443 | 669 ft | 5 kts | 160° |
| 2026-04-26 13:20 | 43.09494 | 12.50469 | 671 ft | 12 kts | 160° |
| 2026-04-26 13:20 | 43.09399 | 12.50522 | 671 ft | 17 kts | 154° |
| 2026-04-26 13:21 | 43.09289 | 12.50612 | 671 ft | 20 kts | 148° |
| 2026-04-26 13:21 | 43.09168 | 12.50716 | 671 ft | 21 kts | 147° |
| 2026-04-26 13:21 | 43.09067 | 12.50873 | 670 ft | 23 kts | 116° |
| 2026-04-26 13:21 | 43.09016 | 12.51078 | 672 ft | 21 kts | 128° |
| 2026-04-26 13:22 | 43.08908 | 12.51067 | 672 ft | 14 kts | 214° |
| 2026-04-26 13:22 | 43.08868 | 12.51066 | 672 ft | 1 kts | 94° |
| 2026-04-26 13:22 | 43.08887 | 12.51089 | 671 ft | 8 kts | 13° |
| 2026-04-26 13:22 | 43.08958 | 12.51099 | 672 ft | 10 kts | 16° |
| 2026-04-26 13:23 | 43.08973 | 12.51105 | 672 ft | 7 kts | 17° |
| 2026-04-26 13:23 | 43.09123 | 12.51163 | 672 ft | 53 kts | 13° |
| 2026-04-26 13:23 | 43.09761 | 12.51380 | 668 ft | 133 kts | 14° |
| 2026-04-26 13:23 | 43.10858 | 12.51768 | 852 ft | 180 kts | 12° |
| 2026-04-26 13:24 | 43.12118 | 12.52206 | 1586 ft | 192 kts | 12° |
| 2026-04-26 13:24 | 43.13455 | 12.52643 | 2554 ft | 198 kts | 10° |
| 2026-04-26 13:24 | 43.14856 | 12.52851 | 3355 ft | 215 kts | 350° |
| 2026-04-26 13:24 | 43.16181 | 12.51887 | 4079 ft | 216 kts | 303° |
| 2026-04-26 13:25 | 43.16605 | 12.50075 | 5386 ft | 205 kts | 266° |
| 2026-04-26 13:25 | 43.16119 | 12.48220 | 6226 ft | 216 kts | 236° |
| 2026-04-26 13:25 | 43.15337 | 12.46405 | 6997 ft | 228 kts | 246° |
| 2026-04-26 13:25 | 43.14702 | 12.44351 | 7788 ft | 237 kts | 248° |
| 2026-04-26 13:26 | 43.14068 | 12.42275 | 8854 ft | 237 kts | 248° |
| 2026-04-26 13:26 | 43.13422 | 12.40168 | 9761 ft | 244 kts | 248° |
| 2026-04-26 13:26 | 43.12761 | 12.37999 | 10633 ft | 248 kts | 248° |
| 2026-04-26 13:26 | 43.12089 | 12.35813 | 11511 ft | 251 kts | 248° |
| 2026-04-26 13:27 | 43.11559 | 12.33532 | 12334 ft | 253 kts | 265° |
| 2026-04-26 13:27 | 43.11668 | 12.31136 | 13177 ft | 254 kts | 286° |
| 2026-04-26 13:27 | 43.12317 | 12.28864 | 13925 ft | 260 kts | 295° |
| 2026-04-26 13:27 | 43.12998 | 12.26526 | 14109 ft | 270 kts | 284° |
| 2026-04-26 13:28 | 43.13352 | 12.23922 | 14105 ft | 287 kts | 281° |
| 2026-04-26 13:28 | 43.13772 | 12.21167 | 14101 ft | 304 kts | 283° |
| 2026-04-26 13:28 | 43.14259 | 12.18264 | 14094 ft | 322 kts | 284° |
| 2026-04-26 13:28 | 43.14794 | 12.15220 | 14084 ft | 334 kts | 284° |
| 2026-04-26 13:29 | 43.15410 | 12.12134 | 14094 ft | 338 kts | 294° |
| 2026-04-26 13:29 | 43.16164 | 12.10273 | 14113 ft | 338 kts | 308° |
| 2026-04-26 13:29 | 43.18233 | 12.07020 | 14121 ft | 340 kts | 313° |
| 2026-04-26 13:29 | 43.19793 | 12.04642 | 14122 ft | 340 kts | 313° |
| 2026-04-26 13:30 | 43.21385 | 12.02241 | 14117 ft | 340 kts | 313° |
| 2026-04-26 13:30 | 43.22981 | 11.99848 | 14115 ft | 341 kts | 313° |
| 2026-04-26 13:30 | 43.24584 | 11.97451 | 14115 ft | 341 kts | 314° |
| 2026-04-26 13:30 | 43.26191 | 11.95051 | 14272 ft | 344 kts | 314° |
| 2026-04-26 13:31 | 43.27987 | 11.92948 | 15168 ft | 339 kts | 332° |
| 2026-04-26 13:31 | 43.30201 | 11.91876 | 15971 ft | 339 kts | 351° |
| 2026-04-26 13:31 | 43.32542 | 11.91376 | 16735 ft | 343 kts | 351° |
| 2026-04-26 13:31 | 43.34913 | 11.90871 | 17478 ft | 347 kts | 352° |
| 2026-04-26 13:32 | 43.37306 | 11.90380 | 18237 ft | 350 kts | 352° |
| 2026-04-26 13:32 | 43.39726 | 11.89897 | 18890 ft | 353 kts | 352° |
| 2026-04-26 13:32 | 43.42166 | 11.89417 | 19506 ft | 356 kts | 352° |
| 2026-04-26 13:32 | 43.44632 | 11.88937 | 20118 ft | 359 kts | 353° |
| 2026-04-26 13:33 | 43.47129 | 11.89014 | 20726 ft | 362 kts | 11° |
| 2026-04-26 13:33 | 43.49490 | 11.90254 | 21320 ft | 368 kts | 28° |
| 2026-04-26 13:33 | 43.51568 | 11.92354 | 21898 ft | 373 kts | 38° |
| 2026-04-26 13:33 | 43.53564 | 11.94658 | 22478 ft | 377 kts | 38° |
| 2026-04-26 13:34 | 43.55592 | 11.96976 | 23050 ft | 380 kts | 37° |
| 2026-04-26 13:34 | 43.57643 | 11.99316 | 23606 ft | 384 kts | 37° |
| 2026-04-26 13:34 | 43.59710 | 12.01677 | 24089 ft | 387 kts | 37° |
| 2026-04-26 13:34 | 43.61088 | 12.03252 | 24380 ft | 390 kts | 37° |
| 2026-04-26 13:35 | 43.63897 | 12.06465 | 24974 ft | 394 kts | 37° |
| 2026-04-26 13:35 | 43.66014 | 12.08891 | 25409 ft | 398 kts | 37° |
| 2026-04-26 13:35 | 43.68156 | 12.11345 | 25830 ft | 401 kts | 37° |
| 2026-04-26 13:35 | 43.70307 | 12.13813 | 26250 ft | 404 kts | 37° |
| 2026-04-26 13:36 | 43.72452 | 12.16277 | 26671 ft | 407 kts | 37° |
| 2026-04-26 13:36 | 43.74638 | 12.18790 | 27059 ft | 411 kts | 37° |
| 2026-04-26 13:36 | 43.76843 | 12.21327 | 27501 ft | 413 kts | 37° |
| 2026-04-26 13:36 | 43.79057 | 12.23878 | 27915 ft | 416 kts | 37° |
| 2026-04-26 13:37 | 43.81293 | 12.26455 | 28301 ft | 420 kts | 37° |
| 2026-04-26 13:37 | 43.83541 | 12.29050 | 28712 ft | 422 kts | 37° |
| 2026-04-26 13:37 | 43.85804 | 12.31665 | 29102 ft | 425 kts | 37° |
| 2026-04-26 13:37 | 43.88084 | 12.34302 | 29492 ft | 428 kts | 37° |
| 2026-04-26 13:38 | 43.90376 | 12.36956 | 29871 ft | 431 kts | 37° |
| 2026-04-26 13:38 | 43.92680 | 12.39626 | 30232 ft | 433 kts | 37° |
| 2026-04-26 13:38 | 43.95000 | 12.42318 | 30544 ft | 436 kts | 37° |
| 2026-04-26 13:38 | 43.97333 | 12.45027 | 30874 ft | 438 kts | 37° |
| 2026-04-26 13:39 | 43.99670 | 12.47746 | 31219 ft | 439 kts | 37° |
| 2026-04-26 13:39 | 44.02005 | 12.50467 | 31645 ft | 438 kts | 38° |
| 2026-04-26 13:39 | 44.04338 | 12.53190 | 32077 ft | 437 kts | 38° |
| 2026-04-26 13:39 | 44.06663 | 12.55907 | 32500 ft | 436 kts | 38° |
| 2026-04-26 13:40 | 44.08985 | 12.58621 | 32898 ft | 436 kts | 38° |
| 2026-04-26 13:40 | 44.11309 | 12.61341 | 33116 ft | 437 kts | 38° |
| 2026-04-26 13:40 | 44.13627 | 12.64056 | 33109 ft | 435 kts | 38° |
| 2026-04-26 13:41 | 44.18251 | 12.69477 | 33104 ft | 434 kts | 38° |
| 2026-04-26 13:41 | 44.22838 | 12.74866 | 33104 ft | 434 kts | 38° |
| 2026-04-26 13:42 | 44.27486 | 12.80338 | 33108 ft | 434 kts | 38° |
| 2026-04-26 13:42 | 44.32062 | 12.85737 | 33106 ft | 434 kts | 38° |
| 2026-04-26 13:43 | 44.36672 | 12.91188 | 33104 ft | 434 kts | 38° |
| 2026-04-26 13:43 | 44.41277 | 12.96644 | 33109 ft | 434 kts | 38° |
| 2026-04-26 13:44 | 44.45875 | 13.02104 | 33107 ft | 434 kts | 38° |
| 2026-04-26 13:44 | 44.50474 | 13.07576 | 33108 ft | 434 kts | 38° |
| 2026-04-26 13:45 | 44.55067 | 13.13053 | 33108 ft | 434 kts | 38° |
| 2026-04-26 13:45 | 44.59657 | 13.18538 | 33108 ft | 433 kts | 38° |
| 2026-04-26 13:46 | 44.64243 | 13.24030 | 33100 ft | 433 kts | 38° |
| 2026-04-26 13:46 | 44.68824 | 13.29528 | 33103 ft | 433 kts | 38° |
| 2026-04-26 13:47 | 44.73407 | 13.35041 | 33108 ft | 433 kts | 38° |
| 2026-04-26 13:47 | 44.77982 | 13.40556 | 33100 ft | 433 kts | 38° |
| 2026-04-26 13:48 | 44.82529 | 13.46048 | 33102 ft | 433 kts | 38° |
| 2026-04-26 13:48 | 44.87096 | 13.51578 | 33108 ft | 433 kts | 38° |
| 2026-04-26 13:49 | 44.91667 | 13.57123 | 33098 ft | 433 kts | 38° |
| 2026-04-26 13:49 | 44.96229 | 13.62671 | 33104 ft | 433 kts | 38° |
| 2026-04-26 13:50 | 45.00792 | 13.68231 | 33102 ft | 433 kts | 38° |
| 2026-04-26 13:50 | 45.05355 | 13.73803 | 33104 ft | 433 kts | 38° |
| 2026-04-26 13:51 | 45.09910 | 13.79379 | 33092 ft | 433 kts | 38° |
| 2026-04-26 13:51 | 45.14463 | 13.84962 | 33090 ft | 433 kts | 39° |
| 2026-04-26 13:52 | 45.19015 | 13.90558 | 33101 ft | 433 kts | 39° |
| 2026-04-26 13:52 | 45.23563 | 13.96161 | 33094 ft | 433 kts | 39° |
| 2026-04-26 13:53 | 45.28104 | 14.01769 | 33090 ft | 433 kts | 39° |
| 2026-04-26 13:53 | 45.32644 | 14.07386 | 33087 ft | 433 kts | 39° |
| 2026-04-26 13:54 | 45.37186 | 14.13020 | 33087 ft | 433 kts | 39° |
| 2026-04-26 13:54 | 45.41719 | 14.18653 | 33087 ft | 433 kts | 39° |
| 2026-04-26 13:55 | 45.47751 | 14.26153 | 33086 ft | 432 kts | 37° |
| 2026-04-26 13:56 | 45.56229 | 14.33487 | 33093 ft | 429 kts | 28° |
| 2026-04-26 13:56 | 45.61371 | 14.37818 | 33087 ft | 429 kts | 28° |
| 2026-04-26 13:57 | 45.66513 | 14.42156 | 33084 ft | 429 kts | 28° |
| 2026-04-26 13:57 | 45.71650 | 14.46499 | 33094 ft | 429 kts | 28° |
| 2026-04-26 13:58 | 45.76780 | 14.50846 | 33087 ft | 429 kts | 28° |
| 2026-04-26 13:58 | 45.81876 | 14.55173 | 33079 ft | 428 kts | 28° |
| 2026-04-26 13:59 | 45.87000 | 14.59533 | 33086 ft | 428 kts | 28° |
| 2026-04-26 13:59 | 45.92128 | 14.63906 | 33084 ft | 429 kts | 28° |
| 2026-04-26 14:00 | 46.02384 | 14.72681 | 33079 ft | 428 kts | 28° |
| 2026-04-26 14:01 | 46.07506 | 14.77074 | 33092 ft | 429 kts | 28° |
| 2026-04-26 14:01 | 46.12780 | 14.81056 | 33079 ft | 428 kts | 25° |
| 2026-04-26 14:02 | 46.18057 | 14.85057 | 33081 ft | 429 kts | 25° |
| 2026-04-26 14:02 | 46.23325 | 14.89073 | 33090 ft | 429 kts | 25° |
| 2026-04-26 14:03 | 46.28603 | 14.93106 | 33090 ft | 429 kts | 25° |
| 2026-04-26 14:03 | 46.33877 | 14.97146 | 33087 ft | 429 kts | 25° |
| 2026-04-26 14:04 | 46.39118 | 15.01168 | 33093 ft | 429 kts | 25° |
| 2026-04-26 14:04 | 46.44398 | 15.05230 | 33097 ft | 430 kts | 25° |
| 2026-04-26 14:05 | 46.49679 | 15.09302 | 33099 ft | 430 kts | 25° |
| 2026-04-26 14:05 | 46.54959 | 15.13381 | 33107 ft | 430 kts | 25° |
| 2026-04-26 14:06 | 46.60241 | 15.17471 | 33116 ft | 430 kts | 25° |
| 2026-04-26 14:06 | 46.65535 | 15.21497 | 33118 ft | 429 kts | 23° |
| 2026-04-26 14:07 | 46.70890 | 15.25364 | 33122 ft | 430 kts | 24° |
| 2026-04-26 14:07 | 46.76239 | 15.29259 | 33126 ft | 430 kts | 24° |
| 2026-04-26 14:08 | 46.81600 | 15.33174 | 33130 ft | 431 kts | 24° |
| 2026-04-26 14:08 | 46.86954 | 15.37093 | 33130 ft | 431 kts | 24° |
| 2026-04-26 14:09 | 46.92279 | 15.40998 | 33131 ft | 431 kts | 24° |
| 2026-04-26 14:09 | 46.97644 | 15.44943 | 33131 ft | 432 kts | 24° |
| 2026-04-26 14:10 | 47.03031 | 15.48912 | 33133 ft | 433 kts | 24° |
| 2026-04-26 14:10 | 47.08416 | 15.52889 | 33138 ft | 434 kts | 24° |
| 2026-04-26 14:11 | 47.16509 | 15.58883 | 33133 ft | 435 kts | 24° |
| 2026-04-26 14:11 | 47.21915 | 15.62899 | 33146 ft | 435 kts | 24° |
| 2026-04-26 14:12 | 47.26408 | 15.66243 | 33146 ft | 436 kts | 24° |
| 2026-04-26 14:12 | 47.31818 | 15.70278 | 33155 ft | 436 kts | 24° |
| 2026-04-26 14:13 | 47.39943 | 15.76356 | 33158 ft | 437 kts | 24° |
| 2026-04-26 14:14 | 47.45363 | 15.80422 | 33169 ft | 437 kts | 24° |
| 2026-04-26 14:14 | 47.50779 | 15.84496 | 33172 ft | 437 kts | 24° |
| 2026-04-26 14:15 | 47.56202 | 15.88583 | 33176 ft | 437 kts | 24° |
| 2026-04-26 14:15 | 47.61608 | 15.92667 | 33176 ft | 436 kts | 24° |
| 2026-04-26 14:16 | 47.67013 | 15.96760 | 33186 ft | 435 kts | 24° |
| 2026-04-26 14:16 | 47.72390 | 16.00841 | 33194 ft | 435 kts | 24° |
| 2026-04-26 14:17 | 47.77789 | 16.04949 | 33199 ft | 434 kts | 24° |
| 2026-04-26 14:17 | 47.82098 | 16.08235 | 33205 ft | 434 kts | 24° |
| 2026-04-26 14:18 | 47.85634 | 16.10935 | 33209 ft | 433 kts | 24° |
| 2026-04-26 14:18 | 47.85948 | 16.11175 | 33207 ft | 433 kts | 24° |
| 2026-04-26 14:19 | 47.89759 | 16.14092 | 33207 ft | 432 kts | 24° |
| 2026-04-26 14:19 | 47.95113 | 16.18196 | 33215 ft | 432 kts | 24° |
| 2026-04-26 14:20 | 48.00452 | 16.22298 | 33216 ft | 431 kts | 23° |
| 2026-04-26 14:20 | 48.05783 | 16.26404 | 33196 ft | 431 kts | 23° |
| 2026-04-26 14:21 | 48.11104 | 16.30511 | 33219 ft | 430 kts | 23° |
| 2026-04-26 14:21 | 48.16424 | 16.34628 | 33216 ft | 430 kts | 23° |
| 2026-04-26 14:22 | 48.21734 | 16.38747 | 33217 ft | 430 kts | 23° |
| 2026-04-26 14:22 | 48.27045 | 16.42876 | 33211 ft | 430 kts | 23° |
| 2026-04-26 14:23 | 48.32356 | 16.47015 | 33220 ft | 430 kts | 23° |
| 2026-04-26 14:23 | 48.37670 | 16.51166 | 33221 ft | 430 kts | 23° |
| 2026-04-26 14:24 | 48.42937 | 16.55291 | 33225 ft | 430 kts | 23° |
| 2026-04-26 14:24 | 48.48276 | 16.59479 | 33226 ft | 430 kts | 23° |
| 2026-04-26 14:25 | 48.53582 | 16.63654 | 33232 ft | 430 kts | 23° |
| 2026-04-26 14:25 | 48.58855 | 16.67810 | 33230 ft | 430 kts | 23° |
| 2026-04-26 14:26 | 48.64160 | 16.72000 | 33232 ft | 430 kts | 23° |
| 2026-04-26 14:26 | 48.69456 | 16.76194 | 33228 ft | 430 kts | 23° |
| 2026-04-26 14:27 | 48.74209 | 16.81706 | 33232 ft | 441 kts | 47° |
| 2026-04-26 14:27 | 48.78074 | 16.88962 | 33230 ft | 443 kts | 47° |
| 2026-04-26 14:28 | 48.81905 | 16.96290 | 33226 ft | 443 kts | 47° |
| 2026-04-26 14:28 | 48.85714 | 17.03650 | 33226 ft | 443 kts | 47° |
| 2026-04-26 14:29 | 48.89514 | 17.11015 | 33224 ft | 443 kts | 47° |
| 2026-04-26 14:29 | 48.93312 | 17.18396 | 33218 ft | 443 kts | 47° |
| 2026-04-26 14:30 | 48.97079 | 17.25737 | 33216 ft | 443 kts | 47° |
| 2026-04-26 14:30 | 49.00862 | 17.33132 | 33211 ft | 443 kts | 47° |
| 2026-04-26 14:31 | 49.04646 | 17.40547 | 33216 ft | 443 kts | 47° |
| 2026-04-26 14:31 | 49.08427 | 17.47979 | 33212 ft | 443 kts | 47° |
| 2026-04-26 14:32 | 49.12200 | 17.55413 | 33218 ft | 443 kts | 47° |
| 2026-04-26 14:32 | 49.15969 | 17.62862 | 33233 ft | 443 kts | 47° |
| 2026-04-26 14:33 | 49.19739 | 17.70334 | 33222 ft | 444 kts | 47° |
| 2026-04-26 14:33 | 49.23497 | 17.77803 | 33225 ft | 444 kts | 47° |
| 2026-04-26 14:34 | 49.27258 | 17.85297 | 33232 ft | 444 kts | 47° |
| 2026-04-26 14:34 | 49.31012 | 17.92801 | 33224 ft | 444 kts | 47° |
| 2026-04-26 14:35 | 49.34757 | 18.00308 | 33225 ft | 440 kts | 47° |
| 2026-04-26 14:35 | 49.36587 | 18.03983 | 33159 ft | 426 kts | 46° |
| 2026-04-26 14:35 | 49.38357 | 18.07544 | 33082 ft | 413 kts | 46° |
| 2026-04-26 14:35 | 49.40082 | 18.11015 | 32789 ft | 406 kts | 46° |
| 2026-04-26 14:36 | 49.41798 | 18.14476 | 32313 ft | 409 kts | 46° |
| 2026-04-26 14:36 | 49.43526 | 18.17963 | 31799 ft | 409 kts | 46° |
| 2026-04-26 14:36 | 49.45244 | 18.21437 | 31364 ft | 407 kts | 45° |
| 2026-04-26 14:36 | 49.46950 | 18.24891 | 30939 ft | 404 kts | 45° |
| 2026-04-26 14:37 | 49.48642 | 18.28322 | 30492 ft | 402 kts | 45° |
| 2026-04-26 14:37 | 49.50324 | 18.31735 | 30031 ft | 399 kts | 45° |
| 2026-04-26 14:37 | 49.51994 | 18.35129 | 29541 ft | 397 kts | 45° |
| 2026-04-26 14:37 | 49.53654 | 18.38507 | 29098 ft | 393 kts | 45° |
| 2026-04-26 14:38 | 49.55294 | 18.41848 | 28674 ft | 390 kts | 44° |
| 2026-04-26 14:38 | 49.56919 | 18.45163 | 28245 ft | 386 kts | 44° |
| 2026-04-26 14:38 | 49.58533 | 18.48460 | 27812 ft | 383 kts | 44° |
| 2026-04-26 14:38 | 49.59592 | 18.50624 | 27533 ft | 381 kts | 44° |
| 2026-04-26 14:39 | 49.61708 | 18.54954 | 26963 ft | 376 kts | 44° |
| 2026-04-26 14:39 | 49.63277 | 18.58168 | 26551 ft | 373 kts | 44° |
| 2026-04-26 14:39 | 49.64831 | 18.61357 | 26140 ft | 371 kts | 44° |
| 2026-04-26 14:39 | 49.66351 | 18.64476 | 25730 ft | 369 kts | 44° |
| 2026-04-26 14:40 | 49.67892 | 18.67645 | 25318 ft | 366 kts | 44° |
| 2026-04-26 14:40 | 49.69402 | 18.70800 | 24888 ft | 368 kts | 47° |
| 2026-04-26 14:40 | 49.70621 | 18.74352 | 24430 ft | 375 kts | 54° |
| 2026-04-26 14:40 | 49.71790 | 18.77928 | 24027 ft | 372 kts | 54° |
| 2026-04-26 14:41 | 49.72961 | 18.81488 | 23584 ft | 370 kts | 53° |
| 2026-04-26 14:41 | 49.74124 | 18.85024 | 23120 ft | 369 kts | 54° |
| 2026-04-26 14:41 | 49.75281 | 18.88546 | 22669 ft | 365 kts | 53° |
| 2026-04-26 14:41 | 49.76427 | 18.92038 | 22268 ft | 362 kts | 53° |
| 2026-04-26 14:42 | 49.77555 | 18.95482 | 21873 ft | 359 kts | 53° |
| 2026-04-26 14:42 | 49.78684 | 18.98930 | 21461 ft | 356 kts | 53° |
| 2026-04-26 14:42 | 49.79793 | 19.02326 | 21071 ft | 349 kts | 53° |
| 2026-04-26 14:42 | 49.80870 | 19.05631 | 20686 ft | 338 kts | 53° |
| 2026-04-26 14:43 | 49.81925 | 19.08862 | 20305 ft | 336 kts | 53° |
| 2026-04-26 14:43 | 49.82974 | 19.12084 | 19903 ft | 334 kts | 52° |
| 2026-04-26 14:43 | 49.84015 | 19.15285 | 19519 ft | 332 kts | 52° |
| 2026-04-26 14:43 | 49.84781 | 19.17644 | 19244 ft | 327 kts | 52° |
| 2026-04-26 14:44 | 49.85789 | 19.20755 | 18874 ft | 320 kts | 52° |
| 2026-04-26 14:44 | 49.86775 | 19.23798 | 18494 ft | 314 kts | 52° |
| 2026-04-26 14:44 | 49.87753 | 19.26820 | 18088 ft | 314 kts | 52° |
| 2026-04-26 14:44 | 49.88730 | 19.29844 | 17681 ft | 315 kts | 52° |
| 2026-04-26 14:45 | 49.89716 | 19.32896 | 17185 ft | 318 kts | 52° |
| 2026-04-26 14:45 | 49.90370 | 19.34924 | 16898 ft | 318 kts | 52° |
| 2026-04-26 14:45 | 49.91687 | 19.39015 | 16370 ft | 315 kts | 52° |
| 2026-04-26 14:45 | 49.92660 | 19.42041 | 15992 ft | 312 kts | 52° |
| 2026-04-26 14:46 | 49.93624 | 19.45038 | 15624 ft | 309 kts | 52° |
| 2026-04-26 14:46 | 49.94575 | 19.48027 | 15251 ft | 309 kts | 55° |
| 2026-04-26 14:46 | 49.95189 | 19.51295 | 14840 ft | 321 kts | 68° |
| 2026-04-26 14:46 | 49.95631 | 19.54679 | 14445 ft | 319 kts | 68° |
| 2026-04-26 14:47 | 49.96085 | 19.58075 | 13790 ft | 325 kts | 69° |
| 2026-04-26 14:47 | 49.96547 | 19.61513 | 13204 ft | 323 kts | 69° |
| 2026-04-26 14:47 | 49.97002 | 19.64879 | 12909 ft | 313 kts | 69° |
| 2026-04-26 14:47 | 49.97438 | 19.68117 | 12712 ft | 299 kts | 68° |
| 2026-04-26 14:48 | 49.97860 | 19.71238 | 12264 ft | 296 kts | 69° |
| 2026-04-26 14:48 | 49.98281 | 19.74356 | 11734 ft | 292 kts | 69° |
| 2026-04-26 14:48 | 49.98698 | 19.77427 | 11178 ft | 289 kts | 69° |
| 2026-04-26 14:48 | 49.99108 | 19.80457 | 10689 ft | 283 kts | 70° |
| 2026-04-26 14:49 | 49.99511 | 19.83435 | 10123 ft | 281 kts | 70° |
| 2026-04-26 14:49 | 49.99911 | 19.86404 | 9466 ft | 279 kts | 71° |
| 2026-04-26 14:49 | 50.00310 | 19.89345 | 8842 ft | 276 kts | 71° |
| 2026-04-26 14:49 | 50.00701 | 19.92237 | 8292 ft | 271 kts | 72° |
| 2026-04-26 14:50 | 50.01082 | 19.95053 | 7889 ft | 260 kts | 72° |
| 2026-04-26 14:50 | 50.01446 | 19.97755 | 7519 ft | 249 kts | 72° |
| 2026-04-26 14:50 | 50.01793 | 20.00326 | 7123 ft | 239 kts | 72° |
| 2026-04-26 14:50 | 50.02133 | 20.02827 | 6618 ft | 235 kts | 72° |
| 2026-04-26 14:51 | 50.02467 | 20.05286 | 6178 ft | 229 kts | 72° |
| 2026-04-26 14:51 | 50.02807 | 20.07649 | 5849 ft | 220 kts | 66° |
| 2026-04-26 14:51 | 50.03593 | 20.09542 | 5476 ft | 208 kts | 34° |
| 2026-04-26 14:51 | 50.04855 | 20.10530 | 5048 ft | 198 kts | 7° |
| 2026-04-26 14:52 | 50.06178 | 20.10570 | 4746 ft | 189 kts | 350° |
| 2026-04-26 14:52 | 50.07475 | 20.10299 | 4524 ft | 184 kts | 348° |
| 2026-04-26 14:52 | 50.08740 | 20.09987 | 4350 ft | 184 kts | 347° |
| 2026-04-26 14:52 | 50.09979 | 20.09608 | 4215 ft | 183 kts | 339° |
| 2026-04-26 14:53 | 50.11029 | 20.08508 | 4097 ft | 183 kts | 311° |
| 2026-04-26 14:53 | 50.11555 | 20.06732 | 3977 ft | 188 kts | 283° |
| 2026-04-26 14:53 | 50.11469 | 20.04695 | 3873 ft | 193 kts | 263° |
| 2026-04-26 14:53 | 50.11161 | 20.02654 | 3672 ft | 193 kts | 262° |
| 2026-04-26 14:54 | 50.10871 | 20.00700 | 3490 ft | 178 kts | 264° |
| 2026-04-26 14:54 | 50.10609 | 19.98830 | 3261 ft | 176 kts | 263° |
| 2026-04-26 14:54 | 50.10351 | 19.96977 | 3043 ft | 172 kts | 263° |
| 2026-04-26 14:54 | 50.10104 | 19.95193 | 2835 ft | 164 kts | 264° |
| 2026-04-26 14:55 | 50.09858 | 19.93482 | 2627 ft | 159 kts | 264° |
| 2026-04-26 14:55 | 50.09606 | 19.91892 | 2319 ft | 146 kts | 263° |
| 2026-04-26 14:55 | 50.09344 | 19.90417 | 2074 ft | 140 kts | 261° |
| 2026-04-26 14:55 | 50.09117 | 19.88927 | 1758 ft | 145 kts | 268° |
| 2026-04-26 14:56 | 50.08984 | 19.87362 | 1646 ft | 143 kts | 267° |
| 2026-04-26 14:56 | 50.08800 | 19.85835 | 1527 ft | 145 kts | 261° |
| 2026-04-26 14:56 | 50.08566 | 19.84360 | 1396 ft | 136 kts | 263° |
| 2026-04-26 14:56 | 50.08386 | 19.82926 | 1229 ft | 133 kts | 262° |
| 2026-04-26 14:57 | 50.08185 | 19.81509 | 1073 ft | 136 kts | 263° |
| 2026-04-26 14:57 | 50.07994 | 19.80093 | 872 ft | 131 kts | 263° |
| 2026-04-26 14:57 | 50.07822 | 19.78805 | 805 ft | 100 kts | 255° |
| 2026-04-26 14:57 | 50.07728 | 19.78163 | 801 ft | 25 kts | 254° |
| 2026-04-26 14:58 | 50.07610 | 19.78090 | 802 ft | 17 kts | 183° |
| 2026-04-26 14:58 | 50.07485 | 19.78096 | 802 ft | 16 kts | 136° |
| 2026-04-26 14:58 | 50.07489 | 19.78278 | 802 ft | 22 kts | 77° |
| 2026-04-26 14:58 | 50.07518 | 19.78474 | 802 ft | 21 kts | 77° |
| 2026-04-26 14:59 | 50.07540 | 19.78631 | 802 ft | 14 kts | 77° |
| 2026-04-26 14:59 | 50.07561 | 19.78793 | 802 ft | 17 kts | 79° |
| 2026-04-26 14:59 | 50.07589 | 19.78978 | 802 ft | 19 kts | 78° |
| 2026-04-26 14:59 | 50.07598 | 19.79047 | 802 ft | 20 kts | 78° |
| 2026-04-26 15:00 | 50.07650 | 19.79428 | 802 ft | 24 kts | 77° |
| 2026-04-26 15:00 | 50.07685 | 19.79675 | 802 ft | 23 kts | 78° |
| 2026-04-26 15:00 | 50.07686 | 19.79868 | 802 ft | 15 kts | 141° |
| 2026-04-26 15:00 | 50.07580 | 19.79910 | 802 ft | 17 kts | 168° |
| 2026-04-26 15:01 | 50.07512 | 19.79970 | 802 ft | 11 kts | 98° |
| 2026-04-26 15:01 | 50.07527 | 19.80096 | 802 ft | 13 kts | 78° |
| 2026-04-26 15:01 | 50.07545 | 19.80227 | 802 ft | 12 kts | 78° |
| 2026-04-26 15:01 | 50.07559 | 19.80333 | 802 ft | 7 kts | 78° |
| 2026-04-26 15:02 | 50.07560 | 19.80353 | 802 ft | 4 kts | 92° |
| 2026-04-26 15:02 | 50.07538 | 19.80398 | 802 ft | 12 kts | 158° |
| 2026-04-26 15:02 | 50.07440 | 19.80315 | 802 ft | 19 kts | 255° |
| 2026-04-26 15:02 | 50.07409 | 19.80093 | 802 ft | 22 kts | 257° |
| 2026-04-26 15:03 | 50.07415 | 19.79970 | 802 ft | 10 kts | 320° |
| 2026-04-26 15:03 | 50.07485 | 19.79947 | 802 ft | 11 kts | 7° |
| 2026-04-26 15:03 | 50.07514 | 19.80005 | 802 ft | 8 kts | 79° |
| 2026-04-26 15:03 | 50.07511 | 19.80059 | 802 ft | 3 kts | 137° |
| 2026-04-26 15:04 | 50.07490 | 19.80073 | 802 ft | 3 kts | 166° |
| 2026-04-26 15:04 | 50.07472 | 19.80079 | 802 ft | 0 kts | 167° |